Terminal Aerodrome Forecast
Issued by NWS Cleveland, OH

Home | Current Version | Previous Version | Text Only | Print | Product List | Glossary On
Versions: 1 2 3 4 5 6 7 8 9 10 11 12 13 14 15 16
000
FTUS41 KCLE 280529
TAFYNG
TAF
KYNG 280529Z 2806/2906 19003KT P6SM BKN200
      TEMPO 2807/2809 5SM BR
     FM280900 21003KT 5SM BR FEW008 BKN200
      TEMPO 2809/2813 3SM BR SCT008
     FM281500 23005KT P6SM SCT030 BKN200
     FM282000 27005KT P6SM VCTS SCT040CB BKN120
     FM290100 32004KT 6SM BR SCT040 BKN150=

USA.gov is the U.S. government's official web portal to all federal, state and local government web resources and services.